Time,TemperatureF,DewpointF,PressureIn,WindDirection,WindDirectionDegrees,WindSpeedMPH,WindSpeedGustMPH,Humidity,HourlyPrecipIn,Conditions,Clouds,dailyrainin,SoftwareType,DateUTC
2013-02-24 00:01:00,27.0,25.0,30.03,NE,35,0.0,2.0,91,0.00,,,0.03,,2013-02-24 06:01:00,
2013-02-24 00:11:00,27.0,25.0,30.03,NE,35,0.0,2.0,91,0.00,,,0.03,,2013-02-24 06:11:00,
2013-02-24 00:21:00,26.0,24.0,30.03,NE,35,0.0,1.0,92,0.00,,,0.03,,2013-02-24 06:21:00,
2013-02-24 00:31:00,26.0,24.0,30.03,NE,36,0.0,1.0,92,0.00,,,0.03,,2013-02-24 06:31:00,
2013-02-24 00:42:00,26.0,24.0,30.03,NE,36,0.0,1.0,92,0.00,,,0.03,,2013-02-24 06:42:00,
2013-02-24 00:52:00,26.0,24.0,30.03,NE,36,0.0,0.0,92,0.00,,,0.03,,2013-02-24 06:52:00,
2013-02-24 01:01:00,25.0,23.0,30.04,NE,36,0.0,0.0,92,0.00,,,0.03,,2013-02-24 07:01:00,
2013-02-24 01:12:00,25.0,23.0,30.04,NE,36,0.0,0.0,92,0.00,,,0.03,,2013-02-24 07:12:00,
2013-02-24 01:21:00,26.0,24.0,30.04,NE,36,0.0,1.0,92,0.00,,,0.03,,2013-02-24 07:21:00,
2013-02-24 01:31:00,25.0,23.0,30.03,NE,36,0.0,1.0,93,0.00,,,0.03,,2013-02-24 07:31:00,
2013-02-24 01:42:00,25.0,23.0,30.03,NE,36,0.0,1.0,93,0.00,,,0.03,,2013-02-24 07:42:00,
2013-02-24 01:51:00,25.0,23.0,30.05,NE,35,0.0,0.0,93,0.00,,,0.03,,2013-02-24 07:51:00,
2013-02-24 02:01:00,25.0,23.0,30.05,NE,36,0.0,1.0,93,0.00,,,0.03,,2013-02-24 08:01:00,
2013-02-24 02:11:00,25.0,23.0,30.05,NE,36,0.0,1.0,93,0.00,,,0.03,,2013-02-24 08:11:00,
2013-02-24 02:22:00,25.0,24.0,30.05,NE,35,0.0,1.0,94,0.00,,,0.03,,2013-02-24 08:22:00,
2013-02-24 02:31:00,25.0,24.0,30.05,NE,35,0.0,0.0,94,0.00,,,0.03,,2013-02-24 08:31:00,
2013-02-24 02:42:00,25.0,24.0,30.05,NE,35,0.0,0.0,94,0.00,,,0.03,,2013-02-24 08:42:00,
2013-02-24 02:53:00,25.0,24.0,30.05,NNE,28,0.0,1.0,94,0.00,,,0.03,,2013-02-24 08:53:00,
2013-02-24 03:01:00,25.0,24.0,30.04,NNE,28,0.0,0.0,94,0.00,,,0.03,,2013-02-24 09:01:00,
2013-02-24 03:11:00,25.0,24.0,30.04,NNE,28,0.0,0.0,94,0.00,,,0.03,,2013-02-24 09:11:00,
2013-02-24 03:21:00,24.0,23.0,30.03,NNE,28,1.0,1.0,95,0.00,,,0.03,,2013-02-24 09:21:00,
2013-02-24 03:31:00,25.0,24.0,30.03,North,8,0.0,1.0,95,0.00,,,0.03,,2013-02-24 09:31:00,
2013-02-24 03:42:00,25.0,24.0,30.03,North,8,0.0,1.0,95,0.00,,,0.03,,2013-02-24 09:42:00,
2013-02-24 03:51:00,24.0,23.0,30.03,North,7,0.0,0.0,94,0.00,,,0.03,,2013-02-24 09:51:00,
2013-02-24 04:01:00,24.0,23.0,30.03,North,9,1.0,1.0,95,0.00,,,0.03,,2013-02-24 10:01:00,
2013-02-24 04:11:00,24.0,23.0,30.03,North,9,1.0,1.0,95,0.00,,,0.03,,2013-02-24 10:11:00,
2013-02-24 04:21:00,24.0,23.0,30.03,North,8,0.0,1.0,95,0.00,,,0.03,,2013-02-24 10:21:00,
2013-02-24 04:32:00,24.0,23.0,30.04,North,8,0.0,1.0,95,0.00,,,0.03,,2013-02-24 10:32:00,
2013-02-24 04:41:00,24.0,23.0,30.04,North,8,0.0,1.0,95,0.00,,,0.03,,2013-02-24 10:41:00,
2013-02-24 04:51:00,24.0,23.0,30.03,North,9,0.0,1.0,95,0.00,,,0.03,,2013-02-24 10:51:00,
2013-02-24 05:01:00,24.0,23.0,30.04,North,9,0.0,0.0,95,0.00,,,0.03,,2013-02-24 11:01:00,
2013-02-24 05:11:00,24.0,23.0,30.04,North,9,0.0,0.0,95,0.00,,,0.03,,2013-02-24 11:11:00,
2013-02-24 05:21:00,25.0,24.0,30.05,North,9,0.0,0.0,96,0.00,,,0.03,,2013-02-24 11:21:00,
2013-02-24 05:32:00,24.0,23.0,30.05,North,9,0.0,1.0,95,0.00,,,0.03,,2013-02-24 11:32:00,
2013-02-24 05:41:00,24.0,23.0,30.05,North,9,0.0,1.0,95,0.00,,,0.03,,2013-02-24 11:41:00,
2013-02-24 05:52:00,25.0,24.0,30.05,North,9,0.0,1.0,96,0.00,,,0.03,,2013-02-24 11:52:00,
2013-02-24 06:01:00,24.0,23.0,30.05,North,351,1.0,1.0,96,0.00,,,0.03,,2013-02-24 12:01:00,
2013-02-24 06:11:00,24.0,23.0,30.05,North,351,1.0,1.0,96,0.00,,,0.03,,2013-02-24 12:11:00,
2013-02-24 06:21:00,24.0,23.0,30.05,North,351,1.0,1.0,96,0.00,,,0.03,,2013-02-24 12:21:00,
2013-02-24 06:32:00,25.0,24.0,30.05,North,353,0.0,1.0,96,0.00,,,0.03,,2013-02-24 12:32:00,
2013-02-24 06:46:00,25.0,24.0,30.05,North,353,0.0,1.0,96,0.00,,,0.03,,2013-02-24 12:46:00,
2013-02-24 06:55:00,25.0,24.0,30.06,North,354,0.0,0.0,96,0.00,,,0.03,,2013-02-24 12:55:00,
2013-02-24 07:11:00,25.0,24.0,30.06,ENE,71,0.0,0.0,96,0.00,,,0.03,,2013-02-24 13:11:00,
2013-02-24 07:17:00,25.0,24.0,30.06,ENE,71,0.0,0.0,96,0.00,,,0.03,,2013-02-24 13:17:00,
2013-02-24 07:26:00,25.0,24.0,30.06,ENE,59,0.0,0.0,96,0.00,,,0.03,,2013-02-24 13:26:00,
2013-02-24 07:33:00,24.0,23.0,30.06,ENE,60,0.0,0.0,96,0.00,,,0.03,,2013-02-24 13:33:00,
2013-02-24 07:44:00,24.0,23.0,30.06,ENE,60,0.0,0.0,96,0.00,,,0.03,,2013-02-24 13:44:00,
2013-02-24 07:52:00,25.0,24.0,30.06,ENE,68,0.0,0.0,96,0.00,,,0.03,,2013-02-24 13:52:00,
2013-02-24 08:04:00,27.0,26.0,30.06,ENE,60,0.0,2.0,97,0.00,,,0.03,,2013-02-24 14:04:00,
2013-02-24 08:13:00,28.0,27.0,30.07,ENE,67,1.0,2.0,96,0.00,,,0.03,,2013-02-24 14:13:00,
2013-02-24 08:24:00,28.0,27.0,30.07,ENE,67,1.0,2.0,96,0.00,,,0.03,,2013-02-24 14:24:00,
2013-02-24 08:44:00,30.0,29.0,30.08,ENE,71,0.0,3.0,95,0.00,,,0.03,,2013-02-24 14:44:00,
2013-02-24 08:53:00,31.0,29.0,30.09,ESE,110,1.0,4.0,91,0.00,,,0.03,,2013-02-24 14:53:00,
2013-02-24 09:02:00,33.0,30.0,30.10,SE,128,0.0,2.0,90,0.00,,,0.03,,2013-02-24 15:02:00,
2013-02-24 09:13:00,35.0,31.0,30.10,SSE,150,0.0,2.0,86,0.00,,,0.03,,2013-02-24 15:13:00,
2013-02-24 09:23:00,35.0,31.0,30.10,SSE,150,0.0,2.0,86,0.00,,,0.03,,2013-02-24 15:23:00,
2013-02-24 09:32:00,36.0,32.0,30.10,ESE,116,1.0,4.0,84,0.00,,,0.03,,2013-02-24 15:32:00,
2013-02-24 09:42:00,36.0,32.0,30.10,ESE,116,1.0,4.0,84,0.00,,,0.03,,2013-02-24 15:42:00,
2013-02-24 09:52:00,38.0,31.0,30.09,SE,144,6.0,13.0,77,0.00,,,0.03,,2013-02-24 15:52:00,
2013-02-24 10:01:00,39.0,32.0,30.08,ESE,115,4.0,11.0,75,0.00,,,0.03,,2013-02-24 16:01:00,
2013-02-24 10:11:00,39.0,32.0,30.08,ESE,115,4.0,11.0,75,0.00,,,0.03,,2013-02-24 16:11:00,
2013-02-24 10:21:00,40.0,31.0,30.09,ESE,111,6.0,12.0,71,0.00,,,0.03,,2013-02-24 16:21:00,
2013-02-24 10:32:00,41.0,31.0,30.09,SE,128,5.0,11.0,66,0.00,,,0.03,,2013-02-24 16:32:00,
2013-02-24 10:42:00,41.0,31.0,30.09,SE,128,5.0,11.0,66,0.00,,,0.03,,2013-02-24 16:42:00,
2013-02-24 10:52:00,42.0,31.0,30.09,East,87,4.0,8.0,64,0.00,,,0.03,,2013-02-24 16:52:00,
2013-02-24 11:01:00,42.0,31.0,30.09,East,87,4.0,8.0,64,0.00,,,0.03,,2013-02-24 17:01:00,
2013-02-24 11:11:00,42.0,31.0,30.09,East,87,4.0,8.0,64,0.00,,,0.03,,2013-02-24 17:11:00,
2013-02-24 11:21:00,44.0,30.0,30.09,SSE,158,7.0,14.0,57,0.00,,,0.03,,2013-02-24 17:21:00,
2013-02-24 11:32:00,45.0,32.0,30.09,ESE,107,3.0,8.0,59,0.00,,,0.03,,2013-02-24 17:32:00,
2013-02-24 11:42:00,45.0,32.0,30.09,ESE,107,3.0,8.0,59,0.00,,,0.03,,2013-02-24 17:42:00,
2013-02-24 11:52:00,46.0,32.0,30.08,SE,144,7.0,10.0,57,0.00,,,0.03,,2013-02-24 17:52:00,
2013-02-24 12:01:00,47.0,32.0,30.08,East,81,5.0,12.0,55,0.00,,,0.03,,2013-02-24 18:01:00,
2013-02-24 12:11:00,47.0,32.0,30.08,East,81,5.0,12.0,55,0.00,,,0.03,,2013-02-24 18:11:00,
2013-02-24 12:22:00,47.0,32.0,30.07,ESE,102,5.0,9.0,56,0.00,,,0.03,,2013-02-24 18:22:00,
2013-02-24 12:32:00,49.0,32.0,30.07,East,94,4.0,9.0,52,0.00,,,0.02,,2013-02-24 18:32:00,
2013-02-24 12:42:00,49.0,32.0,30.07,East,94,4.0,9.0,52,0.00,,,0.02,,2013-02-24 18:42:00,
2013-02-24 12:51:00,49.0,32.0,30.06,ESE,102,5.0,8.0,52,0.00,,,0.02,,2013-02-24 18:51:00,
2013-02-24 13:01:00,50.0,33.0,30.06,SE,145,2.0,10.0,51,0.00,,,0.02,,2013-02-24 19:01:00,
2013-02-24 13:11:00,50.0,33.0,30.06,SE,145,2.0,10.0,51,0.00,,,0.02,,2013-02-24 19:11:00,
2013-02-24 13:22:00,50.0,33.0,30.06,SE,145,2.0,10.0,51,0.00,,,0.02,,2013-02-24 19:22:00,
2013-02-24 13:32:00,51.0,33.0,30.03,ESE,104,3.0,9.0,49,0.00,,,0.00,,2013-02-24 19:32:00,
2013-02-24 13:42:00,51.0,33.0,30.03,ESE,104,3.0,9.0,49,0.00,,,0.00,,2013-02-24 19:42:00,
2013-02-24 13:52:00,51.0,33.0,30.03,ESE,104,3.0,9.0,49,0.00,,,0.00,,2013-02-24 19:52:00,
2013-02-24 14:02:00,52.0,33.0,30.02,NE,47,2.0,8.0,48,0.00,,,0.00,,2013-02-24 20:02:00,
2013-02-24 14:11:00,52.0,33.0,30.02,NE,47,2.0,8.0,48,0.00,,,0.00,,2013-02-24 20:11:00,
2013-02-24 14:21:00,52.0,32.0,30.01,ENE,70,5.0,10.0,46,0.00,,,0.00,,2013-02-24 20:21:00,
2013-02-24 14:32:00,53.0,33.0,30.00,ENE,65,2.0,13.0,46,0.00,,,0.00,,2013-02-24 20:32:00,
2013-02-24 14:42:00,53.0,33.0,30.00,ENE,65,2.0,13.0,46,0.00,,,0.00,,2013-02-24 20:42:00,
2013-02-24 14:52:00,53.0,32.0,29.98,NE,44,6.0,13.0,45,0.00,,,0.00,,2013-02-24 20:52:00,
2013-02-24 15:01:00,53.0,32.0,29.98,SE,141,7.0,12.0,45,0.00,,,0.00,,2013-02-24 21:01:00,
2013-02-24 15:11:00,53.0,32.0,29.98,SE,141,7.0,12.0,45,0.00,,,0.00,,2013-02-24 21:11:00,
2013-02-24 15:21:00,53.0,32.0,29.98,ESE,106,5.0,12.0,45,0.00,,,0.00,,2013-02-24 21:21:00,
2013-02-24 15:32:00,54.0,33.0,29.97,East,80,5.0,10.0,45,0.00,,,0.00,,2013-02-24 21:32:00,
2013-02-24 15:42:00,54.0,33.0,29.97,East,80,5.0,10.0,45,0.00,,,0.00,,2013-02-24 21:42:00,
2013-02-24 15:52:00,54.0,33.0,29.97,ENE,65,5.0,10.0,44,0.00,,,0.00,,2013-02-24 21:52:00,
2013-02-24 16:01:00,54.0,33.0,29.97,ESE,103,5.0,14.0,45,0.00,,,0.00,,2013-02-24 22:01:00,
2013-02-24 16:11:00,54.0,33.0,29.97,ESE,103,5.0,14.0,45,0.00,,,0.00,,2013-02-24 22:11:00,
2013-02-24 16:21:00,54.0,34.0,29.96,ENE,77,3.0,14.0,46,0.00,,,0.00,,2013-02-24 22:21:00,
2013-02-24 16:31:00,54.0,34.0,29.96,ENE,76,5.0,14.0,46,0.00,,,0.00,,2013-02-24 22:31:00,
2013-02-24 16:41:00,54.0,34.0,29.96,ENE,76,5.0,14.0,46,0.00,,,0.00,,2013-02-24 22:41:00,
2013-02-24 16:51:00,54.0,34.0,29.95,ESE,113,5.0,12.0,46,0.00,,,0.00,,2013-02-24 22:51:00,
2013-02-24 17:02:00,53.0,33.0,29.96,ENE,65,3.0,15.0,47,0.00,,,0.00,,2013-02-24 23:02:00,
2013-02-24 17:11:00,53.0,33.0,29.96,ENE,65,3.0,15.0,47,0.00,,,0.00,,2013-02-24 23:11:00,
2013-02-24 17:21:00,53.0,34.0,29.95,NE,41,4.0,14.0,48,0.00,,,0.00,,2013-02-24 23:21:00,
2013-02-24 17:31:00,52.0,33.0,29.95,SE,135,4.0,12.0,48,0.00,,,0.00,,2013-02-24 23:31:00,
2013-02-24 17:42:00,52.0,33.0,29.95,SE,135,4.0,12.0,48,0.00,,,0.00,,2013-02-24 23:42:00,
2013-02-24 17:52:00,52.0,33.0,29.95,ESE,115,5.0,12.0,49,0.00,,,0.00,,2013-02-24 23:52:00,
2013-02-24 18:01:00,51.0,33.0,29.95,East,99,2.0,9.0,50,0.00,,,0.00,,2013-02-25 00:01:00,
2013-02-24 18:11:00,51.0,33.0,29.95,East,99,2.0,9.0,50,0.00,,,0.00,,2013-02-25 00:11:00,
2013-02-24 18:21:00,50.0,33.0,29.94,East,86,4.0,10.0,51,0.00,,,0.00,,2013-02-25 00:21:00,
2013-02-24 18:32:00,49.0,33.0,29.95,ENE,66,3.0,8.0,53,0.00,,,0.00,,2013-02-25 00:32:00,
2013-02-24 18:42:00,49.0,33.0,29.95,ENE,66,3.0,8.0,53,0.00,,,0.00,,2013-02-25 00:42:00,
2013-02-24 18:51:00,48.0,33.0,29.95,East,91,2.0,7.0,55,0.00,,,0.00,,2013-02-25 00:51:00,
2013-02-24 19:01:00,48.0,33.0,29.95,East,91,2.0,7.0,55,0.00,,,0.00,,2013-02-25 01:01:00,
2013-02-24 19:11:00,48.0,33.0,29.95,East,91,2.0,7.0,55,0.00,,,0.00,,2013-02-25 01:11:00,
2013-02-24 19:21:00,46.0,32.0,29.95,East,84,2.0,7.0,58,0.00,,,0.00,,2013-02-25 01:21:00,
2013-02-24 19:32:00,46.0,32.0,29.95,East,82,1.0,8.0,59,0.00,,,0.00,,2013-02-25 01:32:00,
2013-02-24 19:42:00,46.0,32.0,29.95,East,82,1.0,8.0,59,0.00,,,0.00,,2013-02-25 01:42:00,
2013-02-24 19:51:00,46.0,33.0,29.95,ESE,120,4.0,10.0,60,0.00,,,0.00,,2013-02-25 01:51:00,
2013-02-24 20:01:00,45.0,33.0,29.95,ESE,121,4.0,11.0,62,0.00,,,0.00,,2013-02-25 02:01:00,
2013-02-24 20:11:00,45.0,33.0,29.95,ESE,121,4.0,11.0,62,0.00,,,0.00,,2013-02-25 02:11:00,
2013-02-24 20:21:00,44.0,33.0,29.94,ESE,103,3.0,7.0,64,0.00,,,0.00,,2013-02-25 02:21:00,
2013-02-24 20:32:00,44.0,33.0,29.94,ESE,103,3.0,7.0,64,0.00,,,0.00,,2013-02-25 02:32:00,
2013-02-24 20:41:00,44.0,33.0,29.94,ESE,103,3.0,7.0,64,0.00,,,0.00,,2013-02-25 02:41:00,
2013-02-24 20:52:00,43.0,33.0,29.96,ENE,78,4.0,7.0,68,0.00,,,0.00,,2013-02-25 02:52:00,
2013-02-24 21:01:00,43.0,34.0,29.96,ESE,109,3.0,8.0,69,0.00,,,0.00,,2013-02-25 03:01:00,
2013-02-24 21:11:00,43.0,34.0,29.96,ESE,109,3.0,8.0,69,0.00,,,0.00,,2013-02-25 03:11:00,
2013-02-24 21:21:00,42.0,33.0,29.96,ENE,67,1.0,5.0,70,0.00,,,0.00,,2013-02-25 03:21:00,
2013-02-24 21:31:00,42.0,33.0,29.96,East,92,0.0,3.0,71,0.00,,,0.00,,2013-02-25 03:31:00,
2013-02-24 21:42:00,42.0,33.0,29.96,East,92,0.0,3.0,71,0.00,,,0.00,,2013-02-25 03:42:00,
2013-02-24 21:51:00,41.0,33.0,29.96,ESE,105,0.0,4.0,72,0.00,,,0.00,,2013-02-25 03:51:00,
2013-02-24 22:01:00,41.0,33.0,29.96,ENE,77,0.0,5.0,73,0.00,,,0.00,,2013-02-25 04:01:00,
2013-02-24 22:11:00,41.0,33.0,29.96,ENE,77,0.0,5.0,73,0.00,,,0.00,,2013-02-25 04:11:00,
2013-02-24 22:21:00,40.0,32.0,29.95,East,88,0.0,3.0,74,0.00,,,0.00,,2013-02-25 04:21:00,
2013-02-24 22:31:00,40.0,33.0,29.95,ENE,73,0.0,5.0,75,0.00,,,0.00,,2013-02-25 04:31:00,
2013-02-24 22:42:00,40.0,33.0,29.95,ENE,73,0.0,5.0,75,0.00,,,0.00,,2013-02-25 04:42:00,
2013-02-24 22:52:00,40.0,33.0,29.95,ENE,59,0.0,2.0,76,0.00,,,0.00,,2013-02-25 04:52:00,
2013-02-24 23:01:00,40.0,33.0,29.94,NE,45,0.0,4.0,76,0.00,,,0.00,,2013-02-25 05:01:00,
2013-02-24 23:11:00,40.0,33.0,29.94,NE,45,0.0,4.0,76,0.00,,,0.00,,2013-02-25 05:11:00,
2013-02-24 23:22:00,39.0,32.0,29.93,ENE,60,0.0,1.0,76,0.00,,,0.00,,2013-02-25 05:22:00,
2013-02-24 23:32:00,39.0,32.0,29.93,ENE,70,1.0,5.0,77,0.00,,,0.00,,2013-02-25 05:32:00,
2013-02-24 23:42:00,39.0,32.0,29.93,ENE,70,1.0,5.0,77,0.00,,,0.00,,2013-02-25 05:42:00,
2013-02-24 23:52:00,39.0,32.0,29.94,NE,46,1.0,6.0,77,0.00,,,0.00,,2013-02-25 05:52:00,